sensor_id;sensor_type;location;lat;lon;timestamp;temperature;humidity
17968;DHT22;9109;48.050;11.696;2023-01-05T04:47:55;10.00;99.90
17968;DHT22;9109;48.050;11.696;2023-01-05T04:50:57;10.00;99.90
17968;DHT22;9109;48.050;11.696;2023-01-05T04:53:59;10.00;99.90
17968;DHT22;9109;48.050;11.696;2023-01-05T04:57:00;10.00;99.90
17968;DHT22;9109;48.050;11.696;2023-01-05T05:00:06;10.00;99.90
17968;DHT22;9109;48.050;11.696;2023-01-05T05:03:09;10.00;99.90
17968;DHT22;9109;48.050;11.696;2023-01-05T05:06:11;10.10;99.90
17968;DHT22;9109;48.050;11.696;2023-01-05T05:09:13;10.00;99.90
17968;DHT22;9109;48.050;11.696;2023-01-05T05:12:15;10.10;99.90
17968;DHT22;9109;48.050;11.696;2023-01-05T05:15:19;10.10;99.90
17968;DHT22;9109;48.050;11.696;2023-01-05T05:18:23;10.00;99.90
17968;DHT22;9109;48.050;11.696;2023-01-05T05:21:25;10.10;99.90
17968;DHT22;9109;48.050;11.696;2023-01-05T05:24:27;10.10;99.90
17968;DHT22;9109;48.050;11.696;2023-01-05T05:27:29;10.00;99.90
17968;DHT22;9109;48.050;11.696;2023-01-05T05:30:31;10.00;99.90
17968;DHT22;9109;48.050;11.696;2023-01-05T05:33:34;10.00;99.90
17968;DHT22;9109;48.050;11.696;2023-01-05T05:36:37;10.00;99.90
17968;DHT22;9109;48.050;11.696;2023-01-05T05:39:39;10.00;99.90
17968;DHT22;9109;48.050;11.696;2023-01-05T05:42:41;10.00;99.90
17968;DHT22;9109;48.050;11.696;2023-01-05T05:45:43;10.00;99.90
17968;DHT22;9109;48.050;11.696;2023-01-05T05:48:46;10.00;99.90
17968;DHT22;9109;48.050;11.696;2023-01-05T05:51:48;10.00;99.90
17968;DHT22;9109;48.050;11.696;2023-01-05T05:54:50;10.00;99.90
17968;DHT22;9109;48.050;11.696;2023-01-05T05:57:52;10.00;99.90
17968;DHT22;9109;48.050;11.696;2023-01-05T06:00:56;10.00;99.90
17968;DHT22;9109;48.050;11.696;2023-01-05T06:04:00;10.00;99.90
17968;DHT22;9109;48.050;11.696;2023-01-05T06:07:02;10.00;99.90
17968;DHT22;9109;48.050;11.696;2023-01-05T06:10:05;9.90;99.90
17968;DHT22;9109;48.050;11.696;2023-01-05T06:13:07;9.90;99.90
17968;DHT22;9109;48.050;11.696;2023-01-05T06:16:09;9.90;99.90
17968;DHT22;9109;48.050;11.696;2023-01-05T06:19:12;10.00;99.90
17968;DHT22;9109;48.050;11.696;2023-01-05T06:22:14;9.90;99.90
17968;DHT22;9109;48.050;11.696;2023-01-05T06:25:16;10.00;99.90
17968;DHT22;9109;48.050;11.696;2023-01-05T06:28:18;10.00;99.90
17968;DHT22;9109;48.050;11.696;2023-01-05T06:31:20;10.00;99.90
17968;DHT22;9109;48.050;11.696;2023-01-05T06:34:23;10.00;99.90
17968;DHT22;9109;48.050;11.696;2023-01-05T06:37:25;9.90;99.90
17968;DHT22;9109;48.050;11.696;2023-01-05T06:40:27;10.00;99.90
17968;DHT22;9109;48.050;11.696;2023-01-05T06:43:29;10.00;99.90
17968;DHT22;9109;48.050;11.696;2023-01-05T06:46:31;9.90;99.90
17968;DHT22;9109;48.050;11.696;2023-01-05T06:49:35;9.90;99.90
17968;DHT22;9109;48.050;11.696;2023-01-05T06:52:37;9.90;99.90
17968;DHT22;9109;48.050;11.696;2023-01-05T06:55:39;9.90;99.90
17968;DHT22;9109;48.050;11.696;2023-01-05T06:58:41;9.90;99.90
17968;DHT22;9109;48.050;11.696;2023-01-05T07:01:43;9.90;99.90
17968;DHT22;9109;48.050;11.696;2023-01-05T07:04:46;9.90;99.90
17968;DHT22;9109;48.050;11.696;2023-01-05T07:07:48;9.90;99.90
17968;DHT22;9109;48.050;11.696;2023-01-05T07:10:50;9.90;99.90
17968;DHT22;9109;48.050;11.696;2023-01-05T07:13:52;9.90;99.90
17968;DHT22;9109;48.050;11.696;2023-01-05T07:16:54;9.90;99.90
17968;DHT22;9109;48.050;11.696;2023-01-05T07:19:57;9.90;99.90
17968;DHT22;9109;48.050;11.696;2023-01-05T07:22:59;9.90;99.90
17968;DHT22;9109;48.050;11.696;2023-01-05T07:26:01;10.00;99.90
17968;DHT22;9109;48.050;11.696;2023-01-05T07:29:03;9.90;99.90
17968;DHT22;9109;48.050;11.696;2023-01-05T07:32:05;9.90;99.90
17968;DHT22;9109;48.050;11.696;2023-01-05T07:35:08;9.90;99.90
17968;DHT22;9109;48.050;11.696;2023-01-05T07:38:10;10.00;99.90
17968;DHT22;9109;48.050;11.696;2023-01-05T07:41:12;10.00;99.90
17968;DHT22;9109;48.050;11.696;2023-01-05T07:44:14;10.00;99.90
17968;DHT22;9109;48.050;11.696;2023-01-05T07:47:18;10.00;99.90
17968;DHT22;9109;48.050;11.696;2023-01-05T07:50:21;10.00;99.90
17968;DHT22;9109;48.050;11.696;2023-01-05T07:53:23;10.00;99.90
17968;DHT22;9109;48.050;11.696;2023-01-05T07:56:25;10.00;99.90
17968;DHT22;9109;48.050;11.696;2023-01-05T07:59:27;10.10;99.90
17968;DHT22;9109;48.050;11.696;2023-01-05T08:02:29;10.10;99.90
17968;DHT22;9109;48.050;11.696;2023-01-05T08:05:32;10.10;99.90
17968;DHT22;9109;48.050;11.696;2023-01-05T08:08:34;10.10;99.90
17968;DHT22;9109;48.050;11.696;2023-01-05T08:11:36;10.10;99.90
17968;DHT22;9109;48.050;11.696;2023-01-05T08:14:38;10.10;99.90
17968;DHT22;9109;48.050;11.696;2023-01-05T08:17:40;10.10;99.90
17968;DHT22;9109;48.050;11.696;2023-01-05T08:20:49;10.10;99.90
17968;DHT22;9109;48.050;11.696;2023-01-05T08:23:51;10.10;99.90
17968;DHT22;9109;48.050;11.696;2023-01-05T08:26:53;10.10;99.90
17968;DHT22;9109;48.050;11.696;2023-01-05T08:29:55;10.10;99.90
17968;DHT22;9109;48.050;11.696;2023-01-05T08:32:57;10.10;99.90
17968;DHT22;9109;48.050;11.696;2023-01-05T08:36:01;10.10;99.90
17968;DHT22;9109;48.050;11.696;2023-01-05T08:39:03;10.10;99.90
17968;DHT22;9109;48.050;11.696;2023-01-05T08:42:05;10.10;99.90
17968;DHT22;9109;48.050;11.696;2023-01-05T08:45:07;10.10;99.90
17968;DHT22;9109;48.050;11.696;2023-01-05T08:48:10;10.20;99.90
17968;DHT22;9109;48.050;11.696;2023-01-05T08:51:13;10.20;99.90
17968;DHT22;9109;48.050;11.696;2023-01-05T08:54:15;10.10;99.90
17968;DHT22;9109;48.050;11.696;2023-01-05T08:57:17;10.10;99.90
17968;DHT22;9109;48.050;11.696;2023-01-05T09:00:19;10.10;99.90
17968;DHT22;9109;48.050;11.696;2023-01-05T09:03:22;10.00;99.90
17968;DHT22;9109;48.050;11.696;2023-01-05T09:06:25;10.10;99.90
17968;DHT22;9109;48.050;11.696;2023-01-05T09:09:28;10.10;99.90
17968;DHT22;9109;48.050;11.696;2023-01-05T09:12:29;10.20;99.90
17968;DHT22;9109;48.050;11.696;2023-01-05T09:15:31;10.20;99.90
17968;DHT22;9109;48.050;11.696;2023-01-05T09:18:35;10.20;99.90
17968;DHT22;9109;48.050;11.696;2023-01-05T09:21:39;10.20;99.90
17968;DHT22;9109;48.050;11.696;2023-01-05T09:24:41;10.20;99.90
17968;DHT22;9109;48.050;11.696;2023-01-05T09:27:43;10.20;99.90
17968;DHT22;9109;48.050;11.696;2023-01-05T09:30:45;10.20;99.90
17968;DHT22;9109;48.050;11.696;2023-01-05T09:33:48;10.20;99.90
17968;DHT22;9109;48.050;11.696;2023-01-05T09:36:51;10.20;99.90
17968;DHT22;9109;48.050;11.696;2023-01-05T09:39:53;10.20;99.90
17968;DHT22;9109;48.050;11.696;2023-01-05T09:42:55;10.30;99.90
17968;DHT22;9109;48.050;11.696;2023-01-05T09:45:57;10.30;99.90
17968;DHT22;9109;48.050;11.696;2023-01-05T09:49:02;10.30;99.90
17968;DHT22;9109;48.050;11.696;2023-01-05T09:52:08;10.40;99.90
17968;DHT22;9109;48.050;11.696;2023-01-05T09:55:14;10.40;99.90
17968;DHT22;9109;48.050;11.696;2023-01-05T09:58:19;10.40;99.90
17968;DHT22;9109;48.050;11.696;2023-01-05T10:01:22;10.40;99.90
17968;DHT22;9109;48.050;11.696;2023-01-05T10:04:26;10.50;99.90
17968;DHT22;9109;48.050;11.696;2023-01-05T10:07:37;10.50;99.90
17968;DHT22;9109;48.050;11.696;2023-01-05T10:10:44;10.50;99.90
17968;DHT22;9109;48.050;11.696;2023-01-05T10:14:09;10.50;99.90
17968;DHT22;9109;48.050;11.696;2023-01-05T10:17:16;10.50;99.90
17968;DHT22;9109;48.050;11.696;2023-01-05T10:20:26;10.60;99.90
17968;DHT22;9109;48.050;11.696;2023-01-05T10:23:45;10.50;99.90
17968;DHT22;9109;48.050;11.696;2023-01-05T10:27:18;10.60;99.90
17968;DHT22;9109;48.050;11.696;2023-01-05T10:30:25;10.60;99.90
17968;DHT22;9109;48.050;11.696;2023-01-05T10:33:41;10.60;99.90
17968;DHT22;9109;48.050;11.696;2023-01-05T10:37:01;10.60;99.90
17968;DHT22;9109;48.050;11.696;2023-01-05T10:40:17;10.70;99.90
17968;DHT22;9109;48.050;11.696;2023-01-05T10:46:56;10.70;99.90
17968;DHT22;9109;48.050;11.696;2023-01-05T10:49:58;10.70;99.90
17968;DHT22;9109;48.050;11.696;2023-01-05T10:53:13;10.80;99.90
17968;DHT22;9109;48.050;11.696;2023-01-05T10:56:24;10.70;99.90
17968;DHT22;9109;48.050;11.696;2023-01-05T10:59:28;10.80;99.90
17968;DHT22;9109;48.050;11.696;2023-01-05T11:02:47;10.80;99.90
17968;DHT22;9109;48.050;11.696;2023-01-05T11:05:50;10.90;99.90
17968;DHT22;9109;48.050;11.696;2023-01-05T11:08:52;10.90;99.90
17968;DHT22;9109;48.050;11.696;2023-01-05T11:12:22;10.80;99.90
17968;DHT22;9109;48.050;11.696;2023-01-05T11:15:24;10.90;99.90
17968;DHT22;9109;48.050;11.696;2023-01-05T11:18:32;11.00;99.90
17968;DHT22;9109;48.050;11.696;2023-01-05T11:21:50;11.00;99.90
17968;DHT22;9109;48.050;11.696;2023-01-05T11:24:52;11.00;99.90
17968;DHT22;9109;48.050;11.696;2023-01-05T11:28:17;11.00;99.90
17968;DHT22;9109;48.050;11.696;2023-01-05T11:31:19;10.80;99.90
17968;DHT22;9109;48.050;11.696;2023-01-05T11:34:32;10.60;99.90
17968;DHT22;9109;48.050;11.696;2023-01-05T11:37:36;10.40;99.90
17968;DHT22;9109;48.050;11.696;2023-01-05T11:40:42;10.30;99.90
17968;DHT22;9109;48.050;11.696;2023-01-05T11:43:46;10.30;99.90
17968;DHT22;9109;48.050;11.696;2023-01-05T11:46:52;10.20;99.90
17968;DHT22;9109;48.050;11.696;2023-01-05T11:50:04;10.20;99.90
17968;DHT22;9109;48.050;11.696;2023-01-05T11:53:22;10.20;99.90
17968;DHT22;9109;48.050;11.696;2023-01-05T11:56:26;10.20;99.90
17968;DHT22;9109;48.050;11.696;2023-01-05T11:59:29;10.10;99.90
17968;DHT22;9109;48.050;11.696;2023-01-05T12:03:02;10.00;99.90
17968;DHT22;9109;48.050;11.696;2023-01-05T12:06:16;10.00;99.90
17968;DHT22;9109;48.050;11.696;2023-01-05T12:09:27;10.10;99.90
17968;DHT22;9109;48.050;11.696;2023-01-05T12:12:40;10.10;99.90
17968;DHT22;9109;48.050;11.696;2023-01-05T12:16:09;10.20;99.90
17968;DHT22;9109;48.050;11.696;2023-01-05T12:19:40;10.10;99.90
17968;DHT22;9109;48.050;11.696;2023-01-05T12:26:27;10.20;99.90
17968;DHT22;9109;48.050;11.696;2023-01-05T12:33:39;10.10;99.90
17968;DHT22;9109;48.050;11.696;2023-01-05T12:37:00;10.10;99.90
17968;DHT22;9109;48.050;11.696;2023-01-05T12:52:28;10.20;99.90
17968;DHT22;9109;48.050;11.696;2023-01-05T12:55:36;10.30;99.90
17968;DHT22;9109;48.050;11.696;2023-01-05T12:58:46;10.40;99.90
17968;DHT22;9109;48.050;11.696;2023-01-05T13:01:57;10.40;99.90
17968;DHT22;9109;48.050;11.696;2023-01-05T13:05:03;10.40;99.90
17968;DHT22;9109;48.050;11.696;2023-01-05T13:08:13;10.40;99.90
17968;DHT22;9109;48.050;11.696;2023-01-05T13:11:22;10.40;99.90
17968;DHT22;9109;48.050;11.696;2023-01-05T13:14:28;10.30;99.90
17968;DHT22;9109;48.050;11.696;2023-01-05T13:17:33;10.20;99.90
17968;DHT22;9109;48.050;11.696;2023-01-05T13:20:41;10.10;99.90
17968;DHT22;9109;48.050;11.696;2023-01-05T13:23:47;10.10;99.90
17968;DHT22;9109;48.050;11.696;2023-01-05T13:26:50;10.10;99.90
17968;DHT22;9109;48.050;11.696;2023-01-05T13:29:53;10.10;99.90
17968;DHT22;9109;48.050;11.696;2023-01-05T13:33:20;10.10;99.90
17968;DHT22;9109;48.050;11.696;2023-01-05T13:36:37;10.10;99.90
17968;DHT22;9109;48.050;11.696;2023-01-05T13:40:06;10.10;99.90
17968;DHT22;9109;48.050;11.696;2023-01-05T13:43:31;10.00;99.90
17968;DHT22;9109;48.050;11.696;2023-01-05T13:47:04;10.00;99.90
17968;DHT22;9109;48.050;11.696;2023-01-05T13:50:41;10.20;99.90
17968;DHT22;9109;48.050;11.696;2023-01-05T13:53:46;10.10;99.90
17968;DHT22;9109;48.050;11.696;2023-01-05T13:56:51;10.00;99.90
17968;DHT22;9109;48.050;11.696;2023-01-05T13:59:56;10.00;99.90
17968;DHT22;9109;48.050;11.696;2023-01-05T14:03:01;10.00;99.90
17968;DHT22;9109;48.050;11.696;2023-01-05T14:06:16;10.10;99.90
17968;DHT22;9109;48.050;11.696;2023-01-05T14:09:25;10.00;99.90
17968;DHT22;9109;48.050;11.696;2023-01-05T14:12:45;10.00;99.90
17968;DHT22;9109;48.050;11.696;2023-01-05T14:15:47;10.10;99.90
17968;DHT22;9109;48.050;11.696;2023-01-05T14:18:51;10.10;99.90
17968;DHT22;9109;48.050;11.696;2023-01-05T14:22:02;10.10;99.90
17968;DHT22;9109;48.050;11.696;2023-01-05T14:29:00;10.10;99.90
17968;DHT22;9109;48.050;11.696;2023-01-05T14:32:04;10.10;99.90
17968;DHT22;9109;48.050;11.696;2023-01-05T14:35:21;10.10;99.90
17968;DHT22;9109;48.050;11.696;2023-01-05T14:38:24;10.20;99.90
17968;DHT22;9109;48.050;11.696;2023-01-05T14:41:27;10.20;99.90
17968;DHT22;9109;48.050;11.696;2023-01-05T14:44:35;10.10;99.90
17968;DHT22;9109;48.050;11.696;2023-01-05T14:47:42;10.10;99.90
17968;DHT22;9109;48.050;11.696;2023-01-05T14:50:46;10.00;99.90
17968;DHT22;9109;48.050;11.696;2023-01-05T14:53:50;10.00;99.90
17968;DHT22;9109;48.050;11.696;2023-01-05T14:57:20;10.00;99.90
17968;DHT22;9109;48.050;11.696;2023-01-05T15:00:47;9.90;99.90
17968;DHT22;9109;48.050;11.696;2023-01-05T15:03:56;9.90;99.90
17968;DHT22;9109;48.050;11.696;2023-01-05T15:07:17;9.80;99.90
17968;DHT22;9109;48.050;11.696;2023-01-05T15:10:53;9.80;99.90
17968;DHT22;9109;48.050;11.696;2023-01-05T15:14:21;9.80;99.90
17968;DHT22;9109;48.050;11.696;2023-01-05T15:18:14;9.80;99.90
17968;DHT22;9109;48.050;11.696;2023-01-05T15:21:47;9.80;99.90
17968;DHT22;9109;48.050;11.696;2023-01-05T15:28:43;9.70;99.90
17968;DHT22;9109;48.050;11.696;2023-01-05T15:31:53;9.80;99.90
17968;DHT22;9109;48.050;11.696;2023-01-05T15:35:02;9.90;99.90
17968;DHT22;9109;48.050;11.696;2023-01-05T15:38:17;10.00;99.90
17968;DHT22;9109;48.050;11.696;2023-01-05T15:41:20;10.00;99.90
17968;DHT22;9109;48.050;11.696;2023-01-05T15:44:28;9.90;99.90
17968;DHT22;9109;48.050;11.696;2023-01-05T15:47:36;9.80;99.90
17968;DHT22;9109;48.050;11.696;2023-01-05T15:50:44;9.80;99.90
17968;DHT22;9109;48.050;11.696;2023-01-05T15:53:52;9.80;99.90
17968;DHT22;9109;48.050;11.696;2023-01-05T15:56:55;9.80;99.90
17968;DHT22;9109;48.050;11.696;2023-01-05T15:59:58;9.80;99.90
17968;DHT22;9109;48.050;11.696;2023-01-05T16:03:18;9.80;99.90
17968;DHT22;9109;48.050;11.696;2023-01-05T16:06:24;9.90;99.90
17968;DHT22;9109;48.050;11.696;2023-01-05T16:09:30;9.90;99.90
17968;DHT22;9109;48.050;11.696;2023-01-05T16:12:33;10.00;99.90
17968;DHT22;9109;48.050;11.696;2023-01-05T16:15:36;10.00;99.90
17968;DHT22;9109;48.050;11.696;2023-01-05T16:18:49;9.90;99.90
17968;DHT22;9109;48.050;11.696;2023-01-05T16:21:56;10.00;99.90
17968;DHT22;9109;48.050;11.696;2023-01-05T16:25:13;10.00;99.90
17968;DHT22;9109;48.050;11.696;2023-01-05T16:28:19;10.10;99.90
17968;DHT22;9109;48.050;11.696;2023-01-05T16:31:28;10.10;99.90
17968;DHT22;9109;48.050;11.696;2023-01-05T16:34:33;10.10;99.90
17968;DHT22;9109;48.050;11.696;2023-01-05T16:37:36;10.20;99.90
17968;DHT22;9109;48.050;11.696;2023-01-05T16:40:53;10.20;99.90
17968;DHT22;9109;48.050;11.696;2023-01-05T16:43:57;10.30;99.90
17968;DHT22;9109;48.050;11.696;2023-01-05T16:50:52;10.20;99.90
17968;DHT22;9109;48.050;11.696;2023-01-05T16:54:05;10.20;99.90
17968;DHT22;9109;48.050;11.696;2023-01-05T16:57:31;10.10;99.90
17968;DHT22;9109;48.050;11.696;2023-01-05T17:00:36;10.10;99.90
17968;DHT22;9109;48.050;11.696;2023-01-05T17:03:39;10.00;99.90
17968;DHT22;9109;48.050;11.696;2023-01-05T17:06:45;9.90;99.90
17968;DHT22;9109;48.050;11.696;2023-01-05T17:09:54;9.80;99.90
17968;DHT22;9109;48.050;11.696;2023-01-05T17:13:03;10.00;99.90
17968;DHT22;9109;48.050;11.696;2023-01-05T17:16:14;10.10;99.90
17968;DHT22;9109;48.050;11.696;2023-01-05T17:19:19;10.10;99.90
17968;DHT22;9109;48.050;11.696;2023-01-05T17:22:24;10.10;99.90
17968;DHT22;9109;48.050;11.696;2023-01-05T17:25:31;10.20;99.90
17968;DHT22;9109;48.050;11.696;2023-01-05T17:28:34;10.20;99.90
17968;DHT22;9109;48.050;11.696;2023-01-05T17:31:36;10.20;99.90
17968;DHT22;9109;48.050;11.696;2023-01-05T17:34:39;10.20;99.90
17968;DHT22;9109;48.050;11.696;2023-01-05T17:37:41;10.20;99.90
17968;DHT22;9109;48.050;11.696;2023-01-05T17:40:45;10.30;99.90
17968;DHT22;9109;48.050;11.696;2023-01-05T17:43:47;10.30;99.90
17968;DHT22;9109;48.050;11.696;2023-01-05T17:46:49;10.30;99.90
17968;DHT22;9109;48.050;11.696;2023-01-05T17:49:51;10.30;99.90
17968;DHT22;9109;48.050;11.696;2023-01-05T17:52:53;10.30;99.90
17968;DHT22;9109;48.050;11.696;2023-01-05T17:55:57;10.30;99.90
17968;DHT22;9109;48.050;11.696;2023-01-05T17:58:58;10.30;99.90
17968;DHT22;9109;48.050;11.696;2023-01-05T18:02:05;10.30;99.90
17968;DHT22;9109;48.050;11.696;2023-01-05T18:05:09;10.30;99.90
17968;DHT22;9109;48.050;11.696;2023-01-05T18:08:11;10.20;99.90
17968;DHT22;9109;48.050;11.696;2023-01-05T18:11:16;10.10;99.90
17968;DHT22;9109;48.050;11.696;2023-01-05T18:14:18;10.10;99.90
17968;DHT22;9109;48.050;11.696;2023-01-05T18:17:20;10.10;99.90
17968;DHT22;9109;48.050;11.696;2023-01-05T18:20:23;10.10;99.90
17968;DHT22;9109;48.050;11.696;2023-01-05T18:23:25;10.10;99.90
17968;DHT22;9109;48.050;11.696;2023-01-05T18:26:28;10.10;99.90
17968;DHT22;9109;48.050;11.696;2023-01-05T18:29:30;10.10;99.90
17968;DHT22;9109;48.050;11.696;2023-01-05T18:32:32;10.10;99.90
17968;DHT22;9109;48.050;11.696;2023-01-05T18:35:34;10.00;99.90
17968;DHT22;9109;48.050;11.696;2023-01-05T18:38:36;10.10;99.90
17968;DHT22;9109;48.050;11.696;2023-01-05T18:41:40;10.10;99.90
17968;DHT22;9109;48.050;11.696;2023-01-05T18:44:42;10.10;99.90
17968;DHT22;9109;48.050;11.696;2023-01-05T18:47:44;10.10;99.90
17968;DHT22;9109;48.050;11.696;2023-01-05T18:50:46;10.00;99.90
17968;DHT22;9109;48.050;11.696;2023-01-05T18:53:50;9.90;99.90
17968;DHT22;9109;48.050;11.696;2023-01-05T18:56:54;9.90;99.90
17968;DHT22;9109;48.050;11.696;2023-01-05T18:59:56;9.90;99.90
17968;DHT22;9109;48.050;11.696;2023-01-05T19:02:58;9.80;99.90
17968;DHT22;9109;48.050;11.696;2023-01-05T19:06:03;9.70;99.90
17968;DHT22;9109;48.050;11.696;2023-01-05T19:09:11;9.60;99.90
17968;DHT22;9109;48.050;11.696;2023-01-05T19:12:16;9.60;99.90
17968;DHT22;9109;48.050;11.696;2023-01-05T19:15:18;9.60;99.90
17968;DHT22;9109;48.050;11.696;2023-01-05T19:18:20;9.60;99.90
17968;DHT22;9109;48.050;11.696;2023-01-05T19:21:23;9.60;99.90
17968;DHT22;9109;48.050;11.696;2023-01-05T19:24:25;9.60;99.90
17968;DHT22;9109;48.050;11.696;2023-01-05T19:27:29;9.60;99.90
17968;DHT22;9109;48.050;11.696;2023-01-05T19:30:31;9.70;99.90
17968;DHT22;9109;48.050;11.696;2023-01-05T19:33:33;9.70;99.90
17968;DHT22;9109;48.050;11.696;2023-01-05T19:36:35;9.70;99.90
17968;DHT22;9109;48.050;11.696;2023-01-05T19:39:37;9.70;99.90
17968;DHT22;9109;48.050;11.696;2023-01-05T19:42:40;9.70;99.90
17968;DHT22;9109;48.050;11.696;2023-01-05T19:45:42;9.70;99.90
17968;DHT22;9109;48.050;11.696;2023-01-05T19:48:45;9.70;99.90
17968;DHT22;9109;48.050;11.696;2023-01-05T19:51:48;9.70;99.90
17968;DHT22;9109;48.050;11.696;2023-01-05T19:54:50;9.70;99.90
17968;DHT22;9109;48.050;11.696;2023-01-05T19:57:53;9.60;99.90
17968;DHT22;9109;48.050;11.696;2023-01-05T20:00:55;9.70;99.90
17968;DHT22;9109;48.050;11.696;2023-01-05T20:03:57;9.60;99.90
17968;DHT22;9109;48.050;11.696;2023-01-05T20:06:59;9.60;99.90
17968;DHT22;9109;48.050;11.696;2023-01-05T20:10:01;9.50;99.90
17968;DHT22;9109;48.050;11.696;2023-01-05T20:13:05;9.50;99.90
17968;DHT22;9109;48.050;11.696;2023-01-05T20:16:09;9.50;99.90
17968;DHT22;9109;48.050;11.696;2023-01-05T20:19:12;9.50;99.90
17968;DHT22;9109;48.050;11.696;2023-01-05T20:22:14;9.50;99.90
17968;DHT22;9109;48.050;11.696;2023-01-05T20:25:16;9.50;99.90
17968;DHT22;9109;48.050;11.696;2023-01-05T20:28:19;9.50;99.90
17968;DHT22;9109;48.050;11.696;2023-01-05T20:31:23;9.50;99.90
17968;DHT22;9109;48.050;11.696;2023-01-05T20:34:27;9.40;99.90
17968;DHT22;9109;48.050;11.696;2023-01-05T20:37:32;9.50;99.90
17968;DHT22;9109;48.050;11.696;2023-01-05T20:40:34;9.40;99.90
17968;DHT22;9109;48.050;11.696;2023-01-05T20:43:37;9.40;99.90
17968;DHT22;9109;48.050;11.696;2023-01-05T20:46:43;9.40;99.90
17968;DHT22;9109;48.050;11.696;2023-01-05T20:49:45;9.30;99.90
17968;DHT22;9109;48.050;11.696;2023-01-05T20:52:47;9.40;99.90
17968;DHT22;9109;48.050;11.696;2023-01-05T20:55:50;9.30;99.90
17968;DHT22;9109;48.050;11.696;2023-01-05T20:58:54;9.30;99.90
17968;DHT22;9109;48.050;11.696;2023-01-05T21:01:57;9.30;99.90
17968;DHT22;9109;48.050;11.696;2023-01-05T21:05:00;9.30;99.90
17968;DHT22;9109;48.050;11.696;2023-01-05T21:08:02;9.20;99.90
17968;DHT22;9109;48.050;11.696;2023-01-05T21:11:07;9.20;99.90
17968;DHT22;9109;48.050;11.696;2023-01-05T21:14:16;9.20;99.90
17968;DHT22;9109;48.050;11.696;2023-01-05T21:17:19;9.30;99.90
17968;DHT22;9109;48.050;11.696;2023-01-05T21:20:23;9.30;99.90
17968;DHT22;9109;48.050;11.696;2023-01-05T21:23:28;9.20;99.90
17968;DHT22;9109;48.050;11.696;2023-01-05T21:26:30;9.20;99.90
17968;DHT22;9109;48.050;11.696;2023-01-05T21:29:33;9.30;99.90
17968;DHT22;9109;48.050;11.696;2023-01-05T21:32:35;9.20;99.90
17968;DHT22;9109;48.050;11.696;2023-01-05T21:35:37;9.30;99.90
17968;DHT22;9109;48.050;11.696;2023-01-05T21:38:39;9.20;99.90
17968;DHT22;9109;48.050;11.696;2023-01-05T21:41:41;9.20;99.90
17968;DHT22;9109;48.050;11.696;2023-01-05T21:45:03;9.20;99.90
17968;DHT22;9109;48.050;11.696;2023-01-05T21:48:05;9.20;99.90
17968;DHT22;9109;48.050;11.696;2023-01-05T21:51:08;9.20;99.90
17968;DHT22;9109;48.050;11.696;2023-01-05T21:54:28;9.10;99.90
17968;DHT22;9109;48.050;11.696;2023-01-05T21:57:47;9.20;99.90
17968;DHT22;9109;48.050;11.696;2023-01-05T22:00:51;9.20;99.90
17968;DHT22;9109;48.050;11.696;2023-01-05T22:03:53;9.20;99.90
17968;DHT22;9109;48.050;11.696;2023-01-05T22:06:56;9.30;99.90
17968;DHT22;9109;48.050;11.696;2023-01-05T22:09:58;9.30;99.90
17968;DHT22;9109;48.050;11.696;2023-01-05T22:13:00;9.30;99.90
17968;DHT22;9109;48.050;11.696;2023-01-05T22:16:04;9.30;99.90
17968;DHT22;9109;48.050;11.696;2023-01-05T22:19:06;9.30;99.90
17968;DHT22;9109;48.050;11.696;2023-01-05T22:22:08;9.40;99.90
17968;DHT22;9109;48.050;11.696;2023-01-05T22:25:10;9.40;99.90
17968;DHT22;9109;48.050;11.696;2023-01-05T22:28:12;9.40;99.90
17968;DHT22;9109;48.050;11.696;2023-01-05T22:31:17;9.50;99.90
17968;DHT22;9109;48.050;11.696;2023-01-05T22:34:20;9.50;99.90
17968;DHT22;9109;48.050;11.696;2023-01-05T22:37:22;9.50;99.90
17968;DHT22;9109;48.050;11.696;2023-01-05T22:40:24;9.50;99.90
17968;DHT22;9109;48.050;11.696;2023-01-05T22:43:26;9.40;99.90
17968;DHT22;9109;48.050;11.696;2023-01-05T22:46:30;9.40;99.90
17968;DHT22;9109;48.050;11.696;2023-01-05T22:49:32;9.30;99.90
17968;DHT22;9109;48.050;11.696;2023-01-05T22:52:34;9.30;99.90
17968;DHT22;9109;48.050;11.696;2023-01-05T22:55:36;9.20;99.90
17968;DHT22;9109;48.050;11.696;2023-01-05T22:58:38;9.10;99.90
17968;DHT22;9109;48.050;11.696;2023-01-05T23:01:42;9.20;99.90
17968;DHT22;9109;48.050;11.696;2023-01-05T23:04:44;9.20;99.90
17968;DHT22;9109;48.050;11.696;2023-01-05T23:07:46;9.20;99.90
17968;DHT22;9109;48.050;11.696;2023-01-05T23:10:48;9.30;99.90
17968;DHT22;9109;48.050;11.696;2023-01-05T23:13:51;9.30;99.90
17968;DHT22;9109;48.050;11.696;2023-01-05T23:16:54;9.30;99.90
17968;DHT22;9109;48.050;11.696;2023-01-05T23:19:56;9.30;99.90
17968;DHT22;9109;48.050;11.696;2023-01-05T23:22:58;9.20;99.90
17968;DHT22;9109;48.050;11.696;2023-01-05T23:26:00;9.20;99.90
17968;DHT22;9109;48.050;11.696;2023-01-05T23:29:02;9.20;99.90
17968;DHT22;9109;48.050;11.696;2023-01-05T23:32:05;9.20;99.90
17968;DHT22;9109;48.050;11.696;2023-01-05T23:35:08;9.20;99.90
17968;DHT22;9109;48.050;11.696;2023-01-05T23:38:10;9.20;99.90
17968;DHT22;9109;48.050;11.696;2023-01-05T23:41:13;9.10;99.90
17968;DHT22;9109;48.050;11.696;2023-01-05T23:44:15;9.10;99.90
17968;DHT22;9109;48.050;11.696;2023-01-05T23:47:19;9.00;99.90
17968;DHT22;9109;48.050;11.696;2023-01-05T23:50:21;9.00;99.90
17968;DHT22;9109;48.050;11.696;2023-01-05T23:53:23;9.00;99.90
17968;DHT22;9109;48.050;11.696;2023-01-05T23:56:27;9.00;99.90
17968;DHT22;9109;48.050;11.696;2023-01-05T23:59:29;9.00;99.90
